Terminal Aerodrome Forecast
Issued by NWS Sterling, VA

Home | Current Version | Previous Version | Text Only | Print | Product List | Glossary On
Versions: 1 2 3 4 5 6 7 8 9 10 11 12 13 14 15 16 17 18
627
FTUS41 KLWX 280703 AAA
TAFCHO
TAF AMD
KCHO 280703Z 2807/2906 00000KT 2SM BR SCT001
     FM281200 00000KT 6SM BR BKN120
     FM281800 20004KT P6SM SHRA VCTS BKN070CB
     FM290000 00000KT 6SM SHRA VCTS BKN060CB=

USA.gov is the U.S. government's official web portal to all federal, state and local government web resources and services.